sensor_id;sensor_type;location;lat;lon;timestamp;pressure;altitude;pressure_sealevel;temperature;humidity
73700;BME280;62005;50.082;8.988;2023-11-19T00:02:13;100374.16;;;7.95;100.00
73700;BME280;62005;50.082;8.988;2023-11-19T00:04:39;100364.03;;;7.97;100.00
73700;BME280;62005;50.082;8.988;2023-11-19T00:07:05;100365.06;;;7.97;100.00
73700;BME280;62005;50.082;8.988;2023-11-19T00:09:32;100356.78;;;7.91;100.00
73700;BME280;62005;50.082;8.988;2023-11-19T00:11:57;100366.72;;;7.97;100.00
73700;BME280;62005;50.082;8.988;2023-11-19T00:14:23;100344.97;;;7.92;100.00
73700;BME280;62005;50.082;8.988;2023-11-19T00:16:49;100351.78;;;8.02;100.00
73700;BME280;62005;50.082;8.988;2023-11-19T00:19:16;100349.72;;;8.04;100.00
73700;BME280;62005;50.082;8.988;2023-11-19T00:21:41;100338.16;;;7.97;100.00
73700;BME280;62005;50.082;8.988;2023-11-19T00:24:07;100351.41;;;8.05;100.00
73700;BME280;62005;50.082;8.988;2023-11-19T00:26:33;100342.28;;;7.99;100.00
73700;BME280;62005;50.082;8.988;2023-11-19T00:28:59;100358.00;;;8.09;100.00
73700;BME280;62005;50.082;8.988;2023-11-19T00:31:28;100349.31;;;8.07;100.00
73700;BME280;62005;50.082;8.988;2023-11-19T00:33:53;100359.28;;;8.13;100.00
73700;BME280;62005;50.082;8.988;2023-11-19T00:36:19;100364.66;;;8.13;100.00
73700;BME280;62005;50.082;8.988;2023-11-19T00:38:44;100364.25;;;8.16;100.00
73700;BME280;62005;50.082;8.988;2023-11-19T00:41:09;100359.06;;;8.14;100.00
73700;BME280;62005;50.082;8.988;2023-11-19T00:43:36;100343.13;;;8.13;100.00
73700;BME280;62005;50.082;8.988;2023-11-19T00:46:01;100355.53;;;8.20;100.00
73700;BME280;62005;50.082;8.988;2023-11-19T00:48:28;100339.78;;;8.17;100.00
73700;BME280;62005;50.082;8.988;2023-11-19T00:50:53;100340.22;;;8.21;100.00
73700;BME280;62005;50.082;8.988;2023-11-19T00:53:19;100333.19;;;8.20;100.00
73700;BME280;62005;50.082;8.988;2023-11-19T00:55:44;100348.09;;;8.29;100.00
73700;BME280;62005;50.082;8.988;2023-11-19T00:58:09;100334.00;;;8.27;100.00
73700;BME280;62005;50.082;8.988;2023-11-19T01:00:35;100343.13;;;8.32;100.00
73700;BME280;62005;50.082;8.988;2023-11-19T01:03:00;100322.81;;;8.30;100.00
73700;BME280;62005;50.082;8.988;2023-11-19T01:05:26;100320.75;;;8.32;100.00
73700;BME280;62005;50.082;8.988;2023-11-19T01:07:52;100320.34;;;8.35;100.00
73700;BME280;62005;50.082;8.988;2023-11-19T01:10:19;100322.41;;;8.39;100.00
73700;BME280;62005;50.082;8.988;2023-11-19T01:12:44;100319.50;;;8.41;100.00
73700;BME280;62005;50.082;8.988;2023-11-19T01:15:09;100311.66;;;8.33;100.00
73700;BME280;62005;50.082;8.988;2023-11-19T01:17:37;100306.69;;;8.36;100.00
73700;BME280;62005;50.082;8.988;2023-11-19T01:20:02;100305.41;;;8.39;100.00
73700;BME280;62005;50.082;8.988;2023-11-19T01:22:31;100297.75;;;8.36;100.00
73700;BME280;62005;50.082;8.988;2023-11-19T01:24:56;100309.16;;;8.38;100.00
73700;BME280;62005;50.082;8.988;2023-11-19T01:27:25;100301.09;;;8.38;100.00
73700;BME280;62005;50.082;8.988;2023-11-19T01:29:51;100298.16;;;8.46;100.00
73700;BME280;62005;50.082;8.988;2023-11-19T01:32:16;100297.13;;;8.47;100.00
73700;BME280;62005;50.082;8.988;2023-11-19T01:34:41;100263.56;;;8.30;100.00
73700;BME280;62005;50.082;8.988;2023-11-19T01:37:07;100275.13;;;8.50;100.00
73700;BME280;62005;50.082;8.988;2023-11-19T01:39:34;100279.28;;;8.52;100.00
73700;BME280;62005;50.082;8.988;2023-11-19T01:42:02;100278.88;;;8.49;100.00
73700;BME280;62005;50.082;8.988;2023-11-19T01:44:27;100285.47;;;8.53;100.00
73700;BME280;62005;50.082;8.988;2023-11-19T01:46:53;100304.97;;;8.55;100.00
73700;BME280;62005;50.082;8.988;2023-11-19T01:49:19;100284.28;;;8.49;100.00
73700;BME280;62005;50.082;8.988;2023-11-19T01:51:45;100257.75;;;8.46;100.00
73700;BME280;62005;50.082;8.988;2023-11-19T01:54:12;100269.31;;;8.53;100.00
73700;BME280;62005;50.082;8.988;2023-11-19T01:56:39;100289.22;;;8.58;100.00
73700;BME280;62005;50.082;8.988;2023-11-19T01:59:06;100280.47;;;8.63;100.00
73700;BME280;62005;50.082;8.988;2023-11-19T02:01:32;100259.78;;;8.57;100.00
73700;BME280;62005;50.082;8.988;2023-11-19T02:03:59;100274.69;;;8.66;100.00
73700;BME280;62005;50.082;8.988;2023-11-19T02:06:26;100268.03;;;8.68;100.00
73700;BME280;62005;50.082;8.988;2023-11-19T02:08:53;100260.56;;;8.70;100.00
73700;BME280;62005;50.082;8.988;2023-11-19T02:11:18;100257.03;;;8.70;100.00
73700;BME280;62005;50.082;8.988;2023-11-19T02:13:43;100248.97;;;8.70;100.00
73700;BME280;62005;50.082;8.988;2023-11-19T02:16:09;100259.72;;;8.76;100.00
73700;BME280;62005;50.082;8.988;2023-11-19T02:18:36;100244.81;;;8.74;100.00
73700;BME280;62005;50.082;8.988;2023-11-19T02:21:02;100229.47;;;8.68;100.00
73700;BME280;62005;50.082;8.988;2023-11-19T02:23:28;100243.50;;;8.83;100.00
73700;BME280;62005;50.082;8.988;2023-11-19T02:26:32;100236.03;;;8.85;100.00
73700;BME280;62005;50.082;8.988;2023-11-19T02:29:00;100225.25;;;8.85;100.00
73700;BME280;62005;50.082;8.988;2023-11-19T02:31:25;100219.88;;;8.85;100.00
73700;BME280;62005;50.082;8.988;2023-11-19T02:33:52;100203.69;;;8.85;100.00
73700;BME280;62005;50.082;8.988;2023-11-19T02:36:17;100194.56;;;8.86;100.00
73700;BME280;62005;50.082;8.988;2023-11-19T02:38:43;100192.47;;;8.88;100.00
73700;BME280;62005;50.082;8.988;2023-11-19T02:41:08;100210.50;;;8.94;100.00
73700;BME280;62005;50.082;8.988;2023-11-19T02:43:35;100197.44;;;8.91;100.00
73700;BME280;62005;50.082;8.988;2023-11-19T02:46:02;100202.78;;;8.97;100.00
73700;BME280;62005;50.082;8.988;2023-11-19T02:48:29;100197.84;;;8.94;100.00
73700;BME280;62005;50.082;8.988;2023-11-19T02:50:55;100208.00;;;8.99;100.00
73700;BME280;62005;50.082;8.988;2023-11-19T02:53:23;100205.47;;;9.04;100.00
73700;BME280;62005;50.082;8.988;2023-11-19T02:55:50;100189.53;;;8.96;100.00
73700;BME280;62005;50.082;8.988;2023-11-19T02:58:16;100193.63;;;9.05;100.00
73700;BME280;62005;50.082;8.988;2023-11-19T03:00:50;100196.50;;;9.10;100.00
73700;BME280;62005;50.082;8.988;2023-11-19T03:03:27;100194.44;;;9.12;100.00
73700;BME280;62005;50.082;8.988;2023-11-19T03:06:07;100196.06;;;9.13;100.00
73700;BME280;62005;50.082;8.988;2023-11-19T03:08:34;100202.75;;;9.10;100.00
73700;BME280;62005;50.082;8.988;2023-11-19T03:11:00;100191.13;;;9.10;100.00
73700;BME280;62005;50.082;8.988;2023-11-19T03:13:25;100182.41;;;9.08;100.00
73700;BME280;62005;50.082;8.988;2023-11-19T03:15:52;100182.75;;;9.18;100.00
73700;BME280;62005;50.082;8.988;2023-11-19T03:18:19;100171.19;;;9.11;100.00
73700;BME280;62005;50.082;8.988;2023-11-19T03:20:46;100175.72;;;9.17;100.00
73700;BME280;62005;50.082;8.988;2023-11-19T03:23:11;100166.22;;;9.08;100.00
73700;BME280;62005;50.082;8.988;2023-11-19T03:25:36;100176.94;;;9.21;100.00
73700;BME280;62005;50.082;8.988;2023-11-19T03:28:03;100164.06;;;9.23;100.00
73700;BME280;62005;50.082;8.988;2023-11-19T03:30:29;100149.56;;;9.17;100.00
73700;BME280;62005;50.082;8.988;2023-11-19T03:32:55;100154.69;;;9.25;100.00
73700;BME280;62005;50.082;8.988;2023-11-19T03:35:21;100151.19;;;9.25;100.00
73700;BME280;62005;50.082;8.988;2023-11-19T03:37:46;100159.44;;;9.30;100.00
73700;BME280;62005;50.082;8.988;2023-11-19T03:40:12;100159.88;;;9.27;100.00
73700;BME280;62005;50.082;8.988;2023-11-19T03:42:37;100151.56;;;9.29;100.00
73700;BME280;62005;50.082;8.988;2023-11-19T03:45:05;100173.09;;;9.35;100.00
73700;BME280;62005;50.082;8.988;2023-11-19T03:47:33;100153.72;;;9.20;100.00
73700;BME280;62005;50.082;8.988;2023-11-19T03:49:59;100177.44;;;9.36;100.00
73700;BME280;62005;50.082;8.988;2023-11-19T03:52:24;100177.59;;;9.41;100.00
73700;BME280;62005;50.082;8.988;2023-11-19T03:54:49;100163.50;;;9.39;100.00
73700;BME280;62005;50.082;8.988;2023-11-19T03:57:14;100147.97;;;9.35;100.00
73700;BME280;62005;50.082;8.988;2023-11-19T03:59:41;100172.31;;;9.53;100.00
73700;BME280;62005;50.082;8.988;2023-11-19T04:02:06;100177.03;;;9.57;100.00
73700;BME280;62005;50.082;8.988;2023-11-19T04:04:31;100170.00;;;9.56;100.00
73700;BME280;62005;50.082;8.988;2023-11-19T04:06:57;100165.22;;;9.58;100.00
73700;BME280;62005;50.082;8.988;2023-11-19T04:09:23;100165.84;;;9.60;100.00
73700;BME280;62005;50.082;8.988;2023-11-19T04:11:49;100177.00;;;9.64;100.00
73700;BME280;62005;50.082;8.988;2023-11-19T04:14:14;100170.94;;;9.68;100.00
73700;BME280;62005;50.082;8.988;2023-11-19T04:16:40;100159.38;;;9.61;100.00
73700;BME280;62005;50.082;8.988;2023-11-19T04:19:06;100161.56;;;9.71;100.00
73700;BME280;62005;50.082;8.988;2023-11-19T04:21:32;100156.56;;;9.74;100.00
73700;BME280;62005;50.082;8.988;2023-11-19T04:23:57;100149.34;;;9.68;100.00
73700;BME280;62005;50.082;8.988;2023-11-19T04:26:23;100149.06;;;9.76;100.00
73700;BME280;62005;50.082;8.988;2023-11-19T04:28:48;100142.84;;;9.76;100.00
73700;BME280;62005;50.082;8.988;2023-11-19T04:31:15;100144.06;;;9.80;100.00
73700;BME280;62005;50.082;8.988;2023-11-19T04:33:41;100139.47;;;9.80;100.00
73700;BME280;62005;50.082;8.988;2023-11-19T04:36:07;100148.41;;;9.81;100.00
73700;BME280;62005;50.082;8.988;2023-11-19T04:38:32;100141.94;;;9.82;100.00
73700;BME280;62005;50.082;8.988;2023-11-19T04:40:58;100146.69;;;9.86;100.00
73700;BME280;62005;50.082;8.988;2023-11-19T04:43:23;100127.78;;;9.86;100.00
73700;BME280;62005;50.082;8.988;2023-11-19T04:45:48;100138.13;;;9.89;100.00
73700;BME280;62005;50.082;8.988;2023-11-19T04:48:14;100131.06;;;9.88;100.00
73700;BME280;62005;50.082;8.988;2023-11-19T04:50:39;100125.66;;;9.88;100.00
73700;BME280;62005;50.082;8.988;2023-11-19T04:53:05;100134.38;;;9.90;100.00
73700;BME280;62005;50.082;8.988;2023-11-19T04:55:30;100133.50;;;9.96;100.00
73700;BME280;62005;50.082;8.988;2023-11-19T04:57:55;100125.41;;;9.96;100.00
73700;BME280;62005;50.082;8.988;2023-11-19T05:00:21;100124.34;;;9.97;100.00
73700;BME280;62005;50.082;8.988;2023-11-19T05:02:46;100118.31;;;9.95;100.00
73700;BME280;62005;50.082;8.988;2023-11-19T05:05:12;100124.34;;;9.97;100.00
73700;BME280;62005;50.082;8.988;2023-11-19T05:07:37;100123.88;;;10.00;100.00
73700;BME280;62005;50.082;8.988;2023-11-19T05:10:03;100137.53;;;10.05;100.00
73700;BME280;62005;50.082;8.988;2023-11-19T05:12:29;100131.09;;;10.06;100.00
73700;BME280;62005;50.082;8.988;2023-11-19T05:14:54;100120.56;;;9.98;100.00
73700;BME280;62005;50.082;8.988;2023-11-19T05:17:20;100130.03;;;10.07;100.00
73700;BME280;62005;50.082;8.988;2023-11-19T05:19:46;100117.59;;;10.06;100.00
73700;BME280;62005;50.082;8.988;2023-11-19T05:22:12;100132.91;;;10.12;100.00
73700;BME280;62005;50.082;8.988;2023-11-19T05:24:38;100131.84;;;10.13;100.00
73700;BME280;62005;50.082;8.988;2023-11-19T05:27:04;100131.84;;;10.13;100.00
73700;BME280;62005;50.082;8.988;2023-11-19T05:29:30;100122.13;;;10.12;100.00
73700;BME280;62005;50.082;8.988;2023-11-19T05:31:55;100145.50;;;10.18;100.00
73700;BME280;62005;50.082;8.988;2023-11-19T05:34:21;100151.53;;;10.20;100.00
73700;BME280;62005;50.082;8.988;2023-11-19T05:36:46;100144.91;;;10.16;100.00
73700;BME280;62005;50.082;8.988;2023-11-19T05:39:12;100154.84;;;10.22;100.00
73700;BME280;62005;50.082;8.988;2023-11-19T05:41:38;100138.63;;;10.22;100.00
73700;BME280;62005;50.082;8.988;2023-11-19T05:44:04;100136.53;;;10.24;100.00
73700;BME280;62005;50.082;8.988;2023-11-19T05:46:29;100102.59;;;10.10;100.00
73700;BME280;62005;50.082;8.988;2023-11-19T05:48:54;100129.00;;;10.26;100.00
73700;BME280;62005;50.082;8.988;2023-11-19T05:51:20;100138.91;;;10.32;100.00
73700;BME280;62005;50.082;8.988;2023-11-19T05:53:45;100144.31;;;10.32;100.00
73700;BME280;62005;50.082;8.988;2023-11-19T05:56:11;100134.31;;;10.33;100.00
73700;BME280;62005;50.082;8.988;2023-11-19T05:58:36;100127.66;;;10.35;100.00
73700;BME280;62005;50.082;8.988;2023-11-19T06:01:02;100121.41;;;10.35;100.00
73700;BME280;62005;50.082;8.988;2023-11-19T06:03:28;100113.44;;;10.40;100.00
73700;BME280;62005;50.082;8.988;2023-11-19T06:05:54;100111.44;;;10.35;100.00
73700;BME280;62005;50.082;8.988;2023-11-19T06:08:20;100117.81;;;10.41;100.00
73700;BME280;62005;50.082;8.988;2023-11-19T06:10:46;100134.38;;;10.44;100.00
73700;BME280;62005;50.082;8.988;2023-11-19T06:13:14;100125.09;;;10.40;100.00
73700;BME280;62005;50.082;8.988;2023-11-19T06:15:43;100090.00;;;10.22;100.00
73700;BME280;62005;50.082;8.988;2023-11-19T06:18:09;100129.56;;;10.46;100.00
73700;BME280;62005;50.082;8.988;2023-11-19T06:20:36;100119.97;;;10.50;100.00
73700;BME280;62005;50.082;8.988;2023-11-19T06:23:02;100120.44;;;10.47;100.00
73700;BME280;62005;50.082;8.988;2023-11-19T06:25:27;100130.78;;;10.50;100.00
73700;BME280;62005;50.082;8.988;2023-11-19T06:27:53;100146.53;;;10.53;100.00
73700;BME280;62005;50.082;8.988;2023-11-19T06:30:19;100124.63;;;10.43;100.00
73700;BME280;62005;50.082;8.988;2023-11-19T06:32:44;100140.31;;;10.53;100.00
73700;BME280;62005;50.082;8.988;2023-11-19T06:35:10;100139.03;;;10.56;100.00
73700;BME280;62005;50.082;8.988;2023-11-19T06:37:36;100136.94;;;10.58;100.00
73700;BME280;62005;50.082;8.988;2023-11-19T06:40:04;100158.72;;;10.63;100.00
73700;BME280;62005;50.082;8.988;2023-11-19T06:42:30;100150.13;;;10.66;100.00
73700;BME280;62005;50.082;8.988;2023-11-19T06:44:55;100141.19;;;10.65;100.00
73700;BME280;62005;50.082;8.988;2023-11-19T06:47:22;100145.53;;;10.66;100.00
73700;BME280;62005;50.082;8.988;2023-11-19T06:49:47;100141.19;;;10.65;100.00
73700;BME280;62005;50.082;8.988;2023-11-19T06:52:13;100134.72;;;10.66;100.00
73700;BME280;62005;50.082;8.988;2023-11-19T06:54:39;100136.00;;;10.64;100.00
73700;BME280;62005;50.082;8.988;2023-11-19T06:57:04;100151.69;;;10.73;100.00
73700;BME280;62005;50.082;8.988;2023-11-19T06:59:30;100154.16;;;10.75;100.00
73700;BME280;62005;50.082;8.988;2023-11-19T07:01:56;100143.44;;;10.68;100.00
73700;BME280;62005;50.082;8.988;2023-11-19T07:04:21;100155.34;;;10.79;100.00
73700;BME280;62005;50.082;8.988;2023-11-19T07:06:46;100158.28;;;10.77;100.00
73700;BME280;62005;50.082;8.988;2023-11-19T07:09:13;100135.09;;;10.70;100.00
73700;BME280;62005;50.082;8.988;2023-11-19T07:11:39;100155.50;;;10.84;100.00
73700;BME280;62005;50.082;8.988;2023-11-19T07:14:05;100156.09;;;10.86;100.00
73700;BME280;62005;50.082;8.988;2023-11-19T07:16:34;100158.81;;;10.86;100.00
73700;BME280;62005;50.082;8.988;2023-11-19T07:19:01;100159.84;;;10.85;100.00
73700;BME280;62005;50.082;8.988;2023-11-19T07:21:26;100156.53;;;10.83;100.00
73700;BME280;62005;50.082;8.988;2023-11-19T07:23:54;100166.91;;;10.86;100.00
73700;BME280;62005;50.082;8.988;2023-11-19T07:26:19;100160.44;;;10.87;100.00
73700;BME280;62005;50.082;8.988;2023-11-19T07:28:44;100164.78;;;10.88;100.00
73700;BME280;62005;50.082;8.988;2023-11-19T07:31:10;100152.78;;;10.84;100.00
73700;BME280;62005;50.082;8.988;2023-11-19T07:33:35;100156.09;;;10.86;100.00
73700;BME280;62005;50.082;8.988;2023-11-19T07:36:01;100156.09;;;10.86;100.00
73700;BME280;62005;50.082;8.988;2023-11-19T07:38:26;100164.91;;;10.93;100.00
73700;BME280;62005;50.082;8.988;2023-11-19T07:40:52;100144.06;;;10.82;100.00
73700;BME280;62005;50.082;8.988;2023-11-19T07:43:17;100164.03;;;10.99;100.00
73700;BME280;62005;50.082;8.988;2023-11-19T07:45:42;100162.94;;;11.00;100.00
73700;BME280;62005;50.082;8.988;2023-11-19T07:48:11;100159.66;;;10.98;100.00
73700;BME280;62005;50.082;8.988;2023-11-19T07:50:38;100171.81;;;11.07;100.00
73700;BME280;62005;50.082;8.988;2023-11-19T07:53:04;100169.09;;;11.07;100.00
73700;BME280;62005;50.082;8.988;2023-11-19T07:55:29;100167.00;;;11.09;100.00
73700;BME280;62005;50.082;8.988;2023-11-19T07:57:55;100175.69;;;11.11;100.00
73700;BME280;62005;50.082;8.988;2023-11-19T08:00:20;100155.72;;;11.12;100.00
73700;BME280;62005;50.082;8.988;2023-11-19T08:02:46;100157.34;;;11.13;100.00
73700;BME280;62005;50.082;8.988;2023-11-19T08:05:11;100162.28;;;11.16;100.00
73700;BME280;62005;50.082;8.988;2023-11-19T08:07:37;100139.69;;;10.99;100.00
73700;BME280;62005;50.082;8.988;2023-11-19T08:10:04;100170.03;;;11.12;100.00
73700;BME280;62005;50.082;8.988;2023-11-19T08:12:30;100179.72;;;11.20;100.00
73700;BME280;62005;50.082;8.988;2023-11-19T08:14:56;100174.31;;;11.20;100.00
73700;BME280;62005;50.082;8.988;2023-11-19T08:17:23;100169.38;;;11.17;100.00
73700;BME280;62005;50.082;8.988;2023-11-19T08:19:49;100180.44;;;11.27;100.00
73700;BME280;62005;50.082;8.988;2023-11-19T08:22:14;100175.47;;;11.24;100.00
73700;BME280;62005;50.082;8.988;2023-11-19T08:24:39;100178.31;;;11.29;100.00
73700;BME280;62005;50.082;8.988;2023-11-19T08:27:05;100171.72;;;11.25;100.00
73700;BME280;62005;50.082;8.988;2023-11-19T08:29:30;100178.44;;;11.34;100.00
73700;BME280;62005;50.082;8.988;2023-11-19T08:31:56;100174.09;;;11.33;100.00
73700;BME280;62005;50.082;8.988;2023-11-19T08:34:21;100173.63;;;11.36;100.00
73700;BME280;62005;50.082;8.988;2023-11-19T08:36:50;100176.94;;;11.38;100.00
73700;BME280;62005;50.082;8.988;2023-11-19T08:39:15;100177.53;;;11.40;100.00
73700;BME280;62005;50.082;8.988;2023-11-19T08:41:40;100185.53;;;11.46;100.00
73700;BME280;62005;50.082;8.988;2023-11-19T08:44:07;100179.06;;;11.47;100.00
73700;BME280;62005;50.082;8.988;2023-11-19T08:46:32;100179.28;;;11.46;100.00
73700;BME280;62005;50.082;8.988;2023-11-19T08:48:57;100190.84;;;11.53;100.00
73700;BME280;62005;50.082;8.988;2023-11-19T08:51:23;100206.63;;;11.56;100.00
73700;BME280;62005;50.082;8.988;2023-11-19T08:53:50;100201.56;;;11.59;100.00
73700;BME280;62005;50.082;8.988;2023-11-19T08:56:15;100199.56;;;11.55;100.00
73700;BME280;62005;50.082;8.988;2023-11-19T08:58:40;100195.78;;;11.56;100.00
73700;BME280;62005;50.082;8.988;2023-11-19T09:01:06;100206.16;;;11.59;100.00
73700;BME280;62005;50.082;8.988;2023-11-19T09:03:31;100195.69;;;11.62;100.00
73700;BME280;62005;50.082;8.988;2023-11-19T09:05:57;100208.53;;;11.67;100.00
73700;BME280;62005;50.082;8.988;2023-11-19T09:08:22;100180.28;;;11.63;100.00
73700;BME280;62005;50.082;8.988;2023-11-19T09:10:47;100191.97;;;11.75;100.00
73700;BME280;62005;50.082;8.988;2023-11-19T09:13:13;100203.97;;;11.79;100.00
73700;BME280;62005;50.082;8.988;2023-11-19T09:15:38;100202.47;;;11.83;100.00
73700;BME280;62005;50.082;8.988;2023-11-19T09:18:04;100198.09;;;11.82;100.00
73700;BME280;62005;50.082;8.988;2023-11-19T09:20:29;100177.25;;;11.71;100.00
73700;BME280;62005;50.082;8.988;2023-11-19T09:23:02;100205.16;;;11.95;100.00
73700;BME280;62005;50.082;8.988;2023-11-19T09:25:28;100204.34;;;11.94;100.00
73700;BME280;62005;50.082;8.988;2023-11-19T09:27:53;100199.63;;;12.01;100.00
73700;BME280;62005;50.082;8.988;2023-11-19T09:30:19;100198.78;;;12.12;100.00
73700;BME280;62005;50.082;8.988;2023-11-19T09:32:44;100199.13;;;12.27;100.00
73700;BME280;62005;50.082;8.988;2023-11-19T09:35:09;100186.41;;;12.39;100.00
73700;BME280;62005;50.082;8.988;2023-11-19T09:37:38;100197.47;;;12.49;100.00
73700;BME280;62005;50.082;8.988;2023-11-19T09:40:05;100189.88;;;12.51;100.00
73700;BME280;62005;50.082;8.988;2023-11-19T09:42:42;100189.44;;;12.54;100.00
73700;BME280;62005;50.082;8.988;2023-11-19T09:45:13;100186.06;;;12.75;100.00
73700;BME280;62005;50.082;8.988;2023-11-19T09:47:42;100176.34;;;12.79;100.00
73700;BME280;62005;50.082;8.988;2023-11-19T09:50:08;100194.69;;;13.00;100.00
73700;BME280;62005;50.082;8.988;2023-11-19T09:52:34;100193.25;;;13.09;100.00
73700;BME280;62005;50.082;8.988;2023-11-19T09:55:00;100183.09;;;13.17;100.00
73700;BME280;62005;50.082;8.988;2023-11-19T09:57:26;100194.13;;;13.27;100.00
73700;BME280;62005;50.082;8.988;2023-11-19T09:59:53;100182.28;;;13.33;100.00
73700;BME280;62005;50.082;8.988;2023-11-19T10:02:19;100202.03;;;13.45;100.00
73700;BME280;62005;50.082;8.988;2023-11-19T10:04:46;100191.19;;;13.45;100.00
73700;BME280;62005;50.082;8.988;2023-11-19T10:07:12;100196.28;;;13.58;100.00
73700;BME280;62005;50.082;8.988;2023-11-19T10:09:37;100198.00;;;13.64;100.00
73700;BME280;62005;50.082;8.988;2023-11-19T10:12:03;100204.69;;;13.73;100.00
73700;BME280;62005;50.082;8.988;2023-11-19T10:14:31;100199.94;;;13.80;100.00
73700;BME280;62005;50.082;8.988;2023-11-19T10:16:56;100201.72;;;13.91;100.00
73700;BME280;62005;50.082;8.988;2023-11-19T10:19:22;100193.66;;;13.96;100.00
73700;BME280;62005;50.082;8.988;2023-11-19T10:21:48;100198.75;;;14.09;100.00
73700;BME280;62005;50.082;8.988;2023-11-19T10:24:13;100197.72;;;14.15;100.00
73700;BME280;62005;50.082;8.988;2023-11-19T10:26:40;100188.53;;;14.16;100.00
73700;BME280;62005;50.082;8.988;2023-11-19T10:29:05;100199.56;;;14.26;100.00
73700;BME280;62005;50.082;8.988;2023-11-19T10:31:31;100177.13;;;14.19;100.00
73700;BME280;62005;50.082;8.988;2023-11-19T10:33:56;100188.84;;;14.36;100.00
73700;BME280;62005;50.082;8.988;2023-11-19T10:36:22;100179.59;;;14.37;100.00
73700;BME280;62005;50.082;8.988;2023-11-19T10:38:56;100188.31;;;14.39;100.00
73700;BME280;62005;50.082;8.988;2023-11-19T10:41:28;100184.53;;;14.40;100.00
73700;BME280;62005;50.082;8.988;2023-11-19T10:43:54;100202.13;;;14.54;100.00
73700;BME280;62005;50.082;8.988;2023-11-19T10:46:19;100176.56;;;14.55;100.00
73700;BME280;62005;50.082;8.988;2023-11-19T10:48:48;100180.50;;;14.64;100.00
73700;BME280;62005;50.082;8.988;2023-11-19T10:51:19;100186.06;;;14.74;100.00
73700;BME280;62005;50.082;8.988;2023-11-19T10:53:49;100180.16;;;14.82;100.00
73700;BME280;62005;50.082;8.988;2023-11-19T10:56:16;100169.22;;;14.77;100.00
73700;BME280;62005;50.082;8.988;2023-11-19T10:58:44;100173.31;;;14.80;100.00
73700;BME280;62005;50.082;8.988;2023-11-19T11:01:16;100174.66;;;14.77;100.00
73700;BME280;62005;50.082;8.988;2023-11-19T11:03:44;100164.28;;;14.74;100.00
73700;BME280;62005;50.082;8.988;2023-11-19T11:06:11;100179.59;;;14.80;100.00
73700;BME280;62005;50.082;8.988;2023-11-19T11:08:39;100163.25;;;14.80;100.00
73700;BME280;62005;50.082;8.988;2023-11-19T11:11:05;100164.38;;;14.84;100.00
73700;BME280;62005;50.082;8.988;2023-11-19T11:13:31;100161.72;;;14.89;100.00
73700;BME280;62005;50.082;8.988;2023-11-19T11:15:57;100163.38;;;14.90;100.00
73700;BME280;62005;50.082;8.988;2023-11-19T11:18:26;100157.31;;;14.83;100.00
73700;BME280;62005;50.082;8.988;2023-11-19T11:21:06;100154.84;;;14.82;100.00
73700;BME280;62005;50.082;8.988;2023-11-19T11:24:03;100155.78;;;14.92;100.00
73700;BME280;62005;50.082;8.988;2023-11-19T11:30:04;100149.41;;;15.08;99.48
73700;BME280;62005;50.082;8.988;2023-11-19T11:32:37;100155.38;;;15.05;97.47
73700;BME280;62005;50.082;8.988;2023-11-19T11:38:00;100132.25;;;14.81;96.92
73700;BME280;62005;50.082;8.988;2023-11-19T11:40:27;100156.28;;;14.89;96.26
73700;BME280;62005;50.082;8.988;2023-11-19T11:42:52;100165.47;;;14.83;92.58
73700;BME280;62005;50.082;8.988;2023-11-19T11:45:18;100171.38;;;14.75;93.27
73700;BME280;62005;50.082;8.988;2023-11-19T11:50:20;100154.88;;;14.60;88.13
73700;BME280;62005;50.082;8.988;2023-11-19T11:56:06;100146.44;;;14.40;92.95
73700;BME280;62005;50.082;8.988;2023-11-19T11:58:12;100163.91;;;14.44;91.33
73700;BME280;62005;50.082;8.988;2023-11-19T12:00:41;100170.41;;;14.43;91.33
73700;BME280;62005;50.082;8.988;2023-11-19T12:03:07;100163.28;;;14.37;91.63
73700;BME280;62005;50.082;8.988;2023-11-19T12:05:38;100170.34;;;14.38;93.74
73700;BME280;62005;50.082;8.988;2023-11-19T12:08:05;100153.41;;;14.31;93.40
73700;BME280;62005;50.082;8.988;2023-11-19T12:10:36;100170.84;;;14.35;94.07
73700;BME280;62005;50.082;8.988;2023-11-19T12:13:04;100171.38;;;14.32;95.88
73700;BME280;62005;50.082;8.988;2023-11-19T12:15:32;100162.63;;;14.30;93.88
73700;BME280;62005;50.082;8.988;2023-11-19T12:17:58;100166.75;;;14.32;94.57
73700;BME280;62005;50.082;8.988;2023-11-19T12:20:24;100155.06;;;14.32;93.96
73700;BME280;62005;50.082;8.988;2023-11-19T12:22:51;100145.19;;;14.26;93.63
73700;BME280;62005;50.082;8.988;2023-11-19T12:25:17;100148.47;;;14.28;94.31
73700;BME280;62005;50.082;8.988;2023-11-19T12:27:49;100135.28;;;14.20;94.11
73700;BME280;62005;50.082;8.988;2023-11-19T12:30:22;100141.28;;;14.22;94.82
73700;BME280;62005;50.082;8.988;2023-11-19T12:32:48;100146.16;;;14.20;93.96
73700;BME280;62005;50.082;8.988;2023-11-19T12:35:14;100119.84;;;14.04;94.71
73700;BME280;62005;50.082;8.988;2023-11-19T12:40:26;100137.59;;;14.11;92.80
73700;BME280;62005;50.082;8.988;2023-11-19T12:42:54;100118.53;;;14.06;94.42
73700;BME280;62005;50.082;8.988;2023-11-19T12:45:20;100120.66;;;14.04;95.08
73700;BME280;62005;50.082;8.988;2023-11-19T12:47:47;100128.56;;;14.06;95.12
73700;BME280;62005;50.082;8.988;2023-11-19T12:50:13;100124.63;;;13.97;93.62
73700;BME280;62005;50.082;8.988;2023-11-19T12:52:39;100116.41;;;13.92;93.79
73700;BME280;62005;50.082;8.988;2023-11-19T12:57:49;100125.31;;;13.87;93.37
73700;BME280;62005;50.082;8.988;2023-11-19T13:00:25;100098.81;;;13.78;94.06